Miami, Florida
Traffic Map
Current Weather Conditions
Miami, Florida
Broken Clouds
Broken Clouds
26°
Feels Like: 27°
Wind Chill: 26° Ceiling: 3300
Heat Index: 27° Visibility: 10mi
Dew Point: 19° Wind: 13mph
Humidity: 64% Direction: 120° (ESE)
Pressure: 30.19in Gusts: 0mph
Raw Report DataKMIA 041453Z 12011KT 10SM SCT025 BKN033 26/19 A3019 RMK AO2 SLP221 T02610189 51018
Traffic Incident Summary
Active as of:
Severity:
Category:
InformationThere was an issue retrieving the traffic information for this location. Please try a different location or try again shortly.
Advertisements
Track Severe Weather on mobile